My Meet Scores
Kate Giroux, Aspire Gymnastics Academy - MyMeetScores.com
Top100 | Top Teams | Upcoming Meets | Completed Meets | Latest | Add Scores | Help| Support | Bookmark and Share

Kate Giroux, Aspire Gymnastics Academy
Personal Bests
LevelVault BarsBeamFloorAA
39.6259.425 8.9509.15036.650
49.3009.800 9.7759.30036.975
59.5509.000 9.3009.17536.625
78.8508.350 9.0509.27534.425
Meet Scores
Date Meet Team Session Level Division Vault Bars Beam Floor AA
2020-02-21 Great Western Invitational - Women's Aspire Gymnastics Academy 03 7 Filly 8.850 19T 0.000 22 9.025 16 8.750 22T 26.625 22
2020-01-24 Uga Invitational Aspire Gymnastics Academy 1A 7 Jr B 8.350 17 8.350 14 8.725 12T 8.975 17 34.400 15
2020-01-17 2020 Bravo Classic Aspire Gymnastics Academy 4B 7 Child 8.525 14 6.650 14 9.050 9 9.125 13 33.350 13
2019-12-20 Aspire Classic - 2019 Aspire Gymnastics Academy 2B 7 Younger 8.600 18 8.350 21 8.200 20 9.275 20 34.425 21
2019-03-22 Illinois Gymnastics State Championships Aspire Gymnastics Academy 2 5 JR C 9.550 3 9.000 12T 8.900 16T 9.175 15T 36.625 11
2019-03-08 Lucky Invite Aspire Gymnastics Academy A07 5 Jr A 9.125 4 8.950 8 9.100 5 8.775 9 35.950 7
2019-02-23 Kinetic Classic 2019 Aspire Gymnastics Academy 1 5 Younger 8.800 3T 8.400 15 9.000 13 8.250 18 34.450 15
2019-02-15 Big ClassicBIG CLASSIC Aspire Gymnastics Academy 5B 5 Child B 9.325 3 8.900 8 9.050 4 8.450 10 35.725 5
2019-01-25 UGA Invitational Aspire Gymnastics Academy B11 5 Jr A 9.325 4 8.700 11 9.025 8 8.875 11 35.925 10
2019-01-18 2019 Bravo Classic Aspire Gymnastics Academy 2A 5 Child 8.825 14T 7.600 29 8.700 24T 8.550 25 33.675 26
2018-12-14 2018 Aspire Classic Aspire Gymnastics Academy 8A 5 Younger 9.375 7 8.850 15T 9.300 8 8.575 16 36.100 9
2018-12-07 St. Nick Invite 2018 Aspire Gymnastics Academy 1 5 JrA 9.400 2 8.150 18 8.175 17 8.250 16T 33.975 16
2018-11-17 Paul Hamm Thanksgiving Class WOMENS Aspire Gymnastics Academy 5 5 Older 9.150 6T 8.275 7 8.725 5 8.500 14T 34.650 7
2018-03-08 Level 4 & 5 State Aspire Gymnastics Academy All 4 Ch F 9.250 3T 9.150 6 9.525 3 8.900 19 36.825 5
2018-02-16 Big Classic Aspire Gymnastics Academy 2B 4 Child B 8.775 5 8.900 7 8.850 8 9.300 3T 35.825 6
2018-01-26 2018 UGA Classic Aspire Gymnastics Academy AA1 4 Jr B 9.075 3 9.000 4 9.775 3 8.875 10 36.725 4
2018-01-19 2018 Bravo Classic Aspire Gymnastics Academy 12B 4 Jr 8.800 6 8.850 9 9.425 6 9.075 12 36.150 9
2017-12-15 2017 Aspire Classic Aspire Gymnastics Academy 3 4 Jr B 9.300 2 9.300 8T 9.150 6T 8.350 18 36.100 8
2017-12-08 St. Nick Invite Aspire Gymnastics Academy 7A 4 JrA 9.050 6T 9.300 4T 9.500 5 9.125 7 36.975 5
2017-11-16 Paul Hamm Thanksgiving Classic - Women Aspire Gymnastics Academy 7 4 Younger 8.850 6T 9.800 2 8.950 14T 9.025 10 36.625 8T
2017-03-10 2017 Illinois Level 4 State Championships Aspire Gymnastics Academy 1 4 Ch A 8.800 14T 8.300 25T 9.300 8T 8.725 24 35.125 21
2017-02-24 Kinetic Classic Aspire Gymnastics Academy 5,6 4 All Ages 8.750 64T 8.550 87T 8.625 108T 8.175 112T 34.100 100
2017-02-18 2017 Great Western Invitational Women's Aspire Gymnastics Academy 5 4 Filly 8.550 8 8.100 16 9.075 11 8.725 13 34.450 13
2017-01-27 2017 UGA Invitational Aspire Gymnastics Academy C12 4 Child 8.450 7T 8.850 8 9.450 3T 9.200 4 35.950 6
2017-01-20 2017 Bravo Classic Aspire Gymnastics Academy 05B 4 6-8yrs 8.050 7 9.025 6 9.300 3 8.575 10 34.950 6
2016-12-16 2016 Aspire Classic Aspire Gymnastics Academy 7 4 Younger 8.700 7T 8.350 13 9.450 8 8.650 16 35.150 12
2016-12-09 St. Nick Invite Aspire Gymnastics Academy 6 4 Junior 8.425 14T 8.700 18T 9.275 11 8.550 22 34.950 18
2016-11-19 Paul Hamm Thanksgiving Classic - 2016 Girls Aspire Gymnastics Academy 7 4 6-8 yrs 8.250 6 8.100 9 9.475 2T 8.450 9 34.275 6
2016-03-04 2016 Illinois Level 3 State Championships Aspire Gymnastics Academy 3 Child-B 9.625 1 9.300 3 8.700 6 9.025 9 36.650 4
2016-02-13 Western Invite Aspire Gymnastics Academy 2 3 Filly 9.275 4T 9.125 3 8.925 5 9.150 9 36.475 3
2016-01-15 2016 Bravo Classic Aspire Gymnastics Academy 15A 3 6-7yrs 9.275 7 9.425 4 8.950 5T 8.600 15 36.250 8
2015-12-18 2015 Aspire Classic Aspire Gymnastics Academy 9 3 Younger 9.250 7T 9.100 5 8.700 8 8.050 14 35.100 8
2015-12-11 St. Nick Invite Aspire Gymnastics Academy 1B 3 All 9.125 26T 9.150 21T 8.200 41T 8.050 47 34.525 33
2015-02-14 2015 Great Western Invitational Aspire Gymnastics Academy 7 3 Filly 9.100 10 7.600 21T 8.350 13T 7.100 24 32.150 22
Get your scores on
a t-shirt, pin, or hoodie

www.lazysuits.com